Blue Star Naxos — SZUI — position and weather

sailwx.info

Track history (hours):
 
Tides and Currents Weather Stations Pressure Air Temp Water Temp Dewpoint Dewpoint Depression Visibility Wind Speed Wind Dir Waves Ship Positions

Blue Star Naxos

Last reported at 2015-Aug-29 20:33 UTC. Time now 2015-Aug-29 20:57 UTC.
Position N 37°57' E 023°38'.

Length 124 m; draft 5 m.

Type: Passenger vessel. MMSI: 239923000.

Date/timePositionNaut miles runAvg speedWind from/ knotsBaromVisibWave heightAir tempDewpointWater temp
2015-Aug-29 20:33N 37°57' E 023°38'0 0.0
2015-Aug-29 19:34N 37°57' E 023°38'0 0.0
2015-Aug-29 18:33N 37°57' E 023°38'0 0.0
2015-Aug-29 17:33N 37°57' E 023°38'1010.0
2015-Aug-29 16:33N 37°47' E 023°42'5221.3
2015-Aug-29 14:08N 37°31' E 024°44'1119.7
2015-Aug-29 13:33N 37°28' E 024°57'5 4.8
2015-Aug-29 12:34N 37°29' E 025°03'1312.7
2015-Aug-29 11:33N 37°28' E 025°19'0 0.4
2015-Aug-29 10:33N 37°28' E 025°19'9 9.3
2015-Aug-29 09:33N 37°32' E 025°09'1211.7
2015-Aug-29 08:33N 37°26' E 024°57'5718.9
2015-Aug-29 05:34N 37°39' E 023°47'1918.9
2015-Aug-29 04:33N 37°57' E 023°38'0 0.1
2015-Aug-29 03:33N 37°57' E 023°38'0 0.0
2015-Aug-29 02:33N 37°57' E 023°38'0 0.0
2015-Aug-29 01:33N 37°57' E 023°38'0 0.0
2015-Aug-29 00:33N 37°57' E 023°38'0 0.0
2015-Aug-28 23:33N 37°57' E 023°38'0 0.0
2015-Aug-28 22:33N 37°57' E 023°38'0 0.0
2015-Aug-28 21:33N 37°57' E 023°38'0 0.0
2015-Aug-28 20:33N 37°57' E 023°38'0 0.0
2015-Aug-28 19:33N 37°57' E 023°38'0 0.0
2015-Aug-28 18:33N 37°57' E 023°38'0 0.0
2015-Aug-28 17:33N 37°57' E 023°38'1010.4
2015-Aug-28 16:33N 37°47' E 023°42'2721.9
2015-Aug-28 15:19N 37°33' E 024°11'2622.5
2015-Aug-28 14:10N 37°31' E 024°44'1219.0
2015-Aug-28 13:33N 37°27' E 024°57'2 1.6
2015-Aug-28 12:34N 37°27' E 024°59'1111.4
2015-Aug-28 11:34N 37°30' E 025°13'5 5.0
2015-Aug-28 10:33N 37°28' E 025°19'9 9.1
2015-Aug-28 09:33N 37°32' E 025°09'1211.8
2015-Aug-28 08:33N 37°26' E 024°57'5819.3
2015-Aug-28 05:33N 37°39' E 023°45'1818.4
2015-Aug-28 04:33N 37°57' E 023°38'0 0.0
2015-Aug-28 03:33N 37°57' E 023°38'0 0.0
2015-Aug-28 02:33N 37°57' E 023°38'2 1.9
2015-Aug-28 01:34N 37°55' E 023°37'1918.7
2015-Aug-28 00:33N 37°40' E 023°50'5718.9
2015-Aug-27 21:33N 37°14' E 024°54'1515.1
2015-Aug-27 20:33N 37°05' E 025°09'1010.3
2015-Aug-27 19:33N 37°07' E 025°22'8 7.7
2015-Aug-27 18:33N 36°59' E 025°20'1110.6
2015-Aug-27 17:32N 36°52' E 025°31'10 9.2
2015-Aug-27 16:30N 36°54' E 025°42'4 1.1
2015-Aug-27 12:33N 36°52' E 025°47'1212.0
2015-Aug-27 11:33N 36°54' E 025°32'11 9.2
2015-Aug-27 10:22N 36°59' E 025°20'7 9.1
2015-Aug-27 09:33N 37°06' E 025°22'1110.7
2015-Aug-27 08:33N 37°05' E 025°09'1817.9
2015-Aug-27 07:33N 37°16' E 024°51'5322.1
2015-Aug-27 05:08N 37°38' E 023°50'1221.2
2015-Aug-27 04:34N 37°47' E 023°39'10 9.8
2015-Aug-27 03:33N 37°57' E 023°38'0 0.0
2015-Aug-27 02:33N 37°57' E 023°38'0 0.0
2015-Aug-27 01:33N 37°57' E 023°38'0 0.0
2015-Aug-27 00:33N 37°57' E 023°38'0 0.0
2015-Aug-26 23:33N 37°57' E 023°38'0 0.0
2015-Aug-26 22:33N 37°57' E 023°38'0 0.0
2015-Aug-26 21:33N 37°57' E 023°38'0 0.0
2015-Aug-26 20:33N 37°57' E 023°38'0 0.0
2015-Aug-26 19:33N 37°57' E 023°38'0 0.0
2015-Aug-26 18:33N 37°57' E 023°38'0 0.0
2015-Aug-26 17:33N 37°57' E 023°38'8 7.8
2015-Aug-26 16:33N 37°49' E 023°41'6421.2
2015-Aug-26 13:33N 37°29' E 024°57'3 3.2
2015-Aug-26 12:34N 37°26' E 024°57'1313.3
2015-Aug-26 11:33N 37°30' E 025°13'5 5.4
2015-Aug-26 10:33N 37°28' E 025°19'9 9.1
2015-Aug-26 09:34N 37°32' E 025°09'1211.7
2015-Aug-26 08:33N 37°26' E 024°57'5618.8
2015-Aug-26 05:34N 37°39' E 023°47'1919.0
2015-Aug-26 04:33N 37°57' E 023°38'0 0.4
2015-Aug-26 03:33N 37°57' E 023°38'0 0.0
2015-Aug-26 02:33N 37°57' E 023°38'3 3.0
2015-Aug-26 01:33N 37°54' E 023°38'1918.6
2015-Aug-26 00:33N 37°39' E 023°52'5718.8
2015-Aug-25 21:34N 37°13' E 024°55'1413.3
2015-Aug-25 20:32N 37°05' E 025°09'1010.5
2015-Aug-25 19:34N 37°07' E 025°22'6 6.2
2015-Aug-25 18:33N 37°01' E 025°19'1311.5
2015-Aug-25 17:28N 36°52' E 025°31'8 9.2
2015-Aug-25 16:33N 36°55' E 025°41'8 1.8
2015-Aug-25 12:18N 36°51' E 025°49'1114.2
2015-Aug-25 11:31N 36°56' E 025°36'17 8.5
2015-Aug-25 09:34N 37°07' E 025°20'9 9.3
2015-Aug-25 08:33N 37°07' E 025°09'1111.0
2015-Aug-25 07:33N 37°12' E 024°56'6722.1
2015-Aug-25 04:33N 37°42' E 023°41'1515.3
2015-Aug-25 03:33N 37°57' E 023°38'0 0.0
2015-Aug-25 02:33N 37°57' E 023°38'0 0.0
2015-Aug-25 01:33N 37°57' E 023°38'0 0.0
2015-Aug-25 00:33N 37°57' E 023°38'0 0.0
2015-Aug-24 23:33N 37°57' E 023°38'0 0.0
2015-Aug-24 22:33N 37°57' E 023°38'0 0.0
2015-Aug-24 21:33N 37°57' E 023°38'0 0.0
2015-Aug-24 20:33N 37°57' E 023°38'0 0.0
2015-Aug-24 19:33N 37°57' E 023°38'0 0.0
2015-Aug-24 18:33N 37°57' E 023°38'0 0.0
2015-Aug-24 17:33N 37°57' E 023°38'7 6.6
2015-Aug-24 16:34N 37°50' E 023°40'2221.5
2015-Aug-24 15:33N 37°36' E 024°00'4522.4
2015-Aug-24 13:33N 37°31' E 024°56'4 4.5
2015-Aug-24 12:34N 37°26' E 024°58'1313.2
2015-Aug-24 11:33N 37°29' E 025°14'4 4.4
2015-Aug-24 10:34N 37°28' E 025°19'9 8.9
2015-Aug-24 09:33N 37°32' E 025°09'1111.4
2015-Aug-24 08:33N 37°26' E 024°57'5618.7
2015-Aug-24 05:33N 37°39' E 023°48'1919.2
2015-Aug-24 04:33N 37°57' E 023°38'0 0.4
2015-Aug-24 03:33N 37°57' E 023°38'0 0.0
2015-Aug-24 02:33N 37°57' E 023°38'2 1.6
2015-Aug-24 01:34N 37°56' E 023°37'1918.6
2015-Aug-24 00:33N 37°40' E 023°48'2119.3
2015-Aug-23 23:28N 37°31' E 024°13'3719.2
2015-Aug-23 21:34N 37°14' E 024°53'1514.7
2015-Aug-23 20:32N 37°05' E 025°09'1111.0
2015-Aug-23 19:34N 37°06' E 025°22'10 9.9
2015-Aug-23 18:33N 36°56' E 025°22'8 7.9
2015-Aug-23 17:31N 36°52' E 025°31'8 8.3
2015-Aug-23 16:33N 36°55' E 025°40'10 2.2
2015-Aug-23 12:15N 36°50' E 025°50'1318.2
2015-Aug-23 11:33N 36°56' E 025°36'17 8.3
2015-Aug-23 09:33N 37°06' E 025°20'9 9.1
2015-Aug-23 08:33N 37°07' E 025°09'1212.5
2015-Aug-23 07:34N 37°13' E 024°55'6622.1
2015-Aug-23 04:33N 37°44' E 023°41'1313.4
2015-Aug-23 03:34N 37°57' E 023°38'0 0.0
2015-Aug-23 02:34N 37°57' E 023°38'0 0.0
2015-Aug-23 01:33N 37°57' E 023°38'0 0.0
2015-Aug-23 00:34N 37°57' E 023°38'0 0.0
2015-Aug-22 23:34N 37°57' E 023°38'0 0.0
2015-Aug-22 22:34N 37°57' E 023°38'0 0.0
2015-Aug-22 21:33N 37°57' E 023°38'0 0.0
2015-Aug-22 20:34N 37°57' E 023°38'0 0.0
2015-Aug-22 19:34N 37°57' E 023°38'0 0.0
2015-Aug-22 18:34N 37°57' E 023°38'0 0.0
2015-Aug-22 17:33N 37°57' E 023°38'6 6.0
2015-Aug-22 16:34N 37°51' E 023°39'6421.3
2015-Aug-22 13:33N 37°30' E 024°56'4 4.0
2015-Aug-22 12:33N 37°28' E 024°60'1111.3
2015-Aug-22 11:33N 37°29' E 025°13'5 5.0
2015-Aug-22 10:33N 37°28' E 025°19'9 9.1
2015-Aug-22 09:34N 37°32' E 025°09'1111.3
2015-Aug-22 08:33N 37°26' E 024°57'5618.8
2015-Aug-22 05:33N 37°39' E 023°47'1919.1
2015-Aug-22 04:33N 37°57' E 023°38'0 0.3
2015-Aug-22 03:33N 37°57' E 023°38'0 0.0
2015-Aug-22 02:33N 37°57' E 023°38'0 0.0
2015-Aug-22 01:33N 37°57' E 023°38'0 0.0
2015-Aug-22 00:33N 37°57' E 023°38'0 0.0
2015-Aug-21 23:33N 37°57' E 023°38'0 0.0
2015-Aug-21 22:33N 37°57' E 023°38'0 0.0
2015-Aug-21 21:33N 37°57' E 023°38'0 0.0
2015-Aug-21 20:33N 37°57' E 023°38'0 0.0
2015-Aug-21 19:33N 37°57' E 023°38'0 0.0
2015-Aug-21 18:33N 37°57' E 023°38'0 0.0
2015-Aug-21 17:33N 37°57' E 023°38'6 5.7
2015-Aug-21 16:33N 37°51' E 023°39'2521.2
2015-Aug-21 15:23N 37°35' E 024°03'4322.6
2015-Aug-21 13:29N 37°30' E 024°57'3 3.3
2015-Aug-21 12:34N 37°27' E 024°59'1211.9
2015-Aug-21 11:33N 37°30' E 025°13'5 5.1
2015-Aug-21 10:33N 37°28' E 025°19'9 9.2
2015-Aug-21 09:34N 37°32' E 025°09'1211.5
2015-Aug-21 08:32N 37°26' E 024°57'5618.9
2015-Aug-21 05:33N 37°39' E 023°47'1919.3
2015-Aug-21 04:34N 37°56' E 023°38'0 0.5
2015-Aug-21 03:33N 37°57' E 023°38'0 0.0
2015-Aug-21 02:33N 37°57' E 023°38'2 1.9
2015-Aug-21 01:33N 37°55' E 023°37'1818.5
2015-Aug-21 00:33N 37°39' E 023°49'2019.1
2015-Aug-20 23:32N 37°32' E 024°12'2519.4
2015-Aug-20 22:15N 37°22' E 024°41'1420.3
2015-Aug-20 21:33N 37°14' E 024°55'1413.9
2015-Aug-20 20:33N 37°05' E 025°09'1010.5
2015-Aug-20 19:34N 37°07' E 025°22'7 6.7
2015-Aug-20 18:33N 37°00' E 025°20'1211.3
2015-Aug-20 17:31N 36°52' E 025°31'8 7.9
2015-Aug-20 16:32N 36°55' E 025°40'9 2.3
2015-Aug-20 12:28N 36°50' E 025°50'1312.5
2015-Aug-20 11:26N 36°53' E 025°34'6 6.2
2015-Aug-20 10:33N 36°53' E 025°27'1413.7
2015-Aug-20 09:33N 37°06' E 025°22'1110.6
2015-Aug-20 08:32N 37°05' E 025°09'1515.6
2015-Aug-20 07:33N 37°14' E 024°53'5322.7
2015-Aug-20 05:14N 37°37' E 023°54'1521.7
2015-Aug-20 04:33N 37°46' E 023°39'1010.4
2015-Aug-20 03:33N 37°57' E 023°38'0 0.0
2015-Aug-20 02:33N 37°57' E 023°38'0 0.0
2015-Aug-20 01:33N 37°57' E 023°38'0 0.0
2015-Aug-20 00:33N 37°57' E 023°38'0 0.0
2015-Aug-19 23:33N 37°57' E 023°38'0 0.0
2015-Aug-19 22:33N 37°57' E 023°38'0 0.0
2015-Aug-19 21:33N 37°57' E 023°38'0 0.0
2015-Aug-19 20:33N 37°57' E 023°38'  
Track history (hours):
 
Tides and Currents Weather Stations Pressure Air Temp Water Temp Dewpoint Dewpoint Depression Visibility Wind Speed Wind Dir Waves Ship Positions

Blue Star Naxos

Last reported at 2015-Aug-29 20:33 UTC. Time now 2015-Aug-29 20:57 UTC.
Position N 37°57' E 023°38'.

Length 124 m; draft 5 m.

Type: Passenger vessel. MMSI: 239923000.

Date/timePositionNaut miles runAvg speedWind from/ knotsBaromVisibWave heightAir tempDewpointWater temp
2015-Aug-29 20:33N 37°57' E 023°38'0 0.0
2015-Aug-29 19:34N 37°57' E 023°38'0 0.0
2015-Aug-29 18:33N 37°57' E 023°38'0 0.0
2015-Aug-29 17:33N 37°57' E 023°38'1010.0
2015-Aug-29 16:33N 37°47' E 023°42'5221.3
2015-Aug-29 14:08N 37°31' E 024°44'1119.7
2015-Aug-29 13:33N 37°28' E 024°57'5 4.8
2015-Aug-29 12:34N 37°29' E 025°03'1312.7
2015-Aug-29 11:33N 37°28' E 025°19'0 0.4
2015-Aug-29 10:33N 37°28' E 025°19'9 9.3
2015-Aug-29 09:33N 37°32' E 025°09'1211.7
2015-Aug-29 08:33N 37°26' E 024°57'5718.9
2015-Aug-29 05:34N 37°39' E 023°47'1918.9
2015-Aug-29 04:33N 37°57' E 023°38'0 0.1
2015-Aug-29 03:33N 37°57' E 023°38'0 0.0
2015-Aug-29 02:33N 37°57' E 023°38'0 0.0
2015-Aug-29 01:33N 37°57' E 023°38'0 0.0
2015-Aug-29 00:33N 37°57' E 023°38'0 0.0
2015-Aug-28 23:33N 37°57' E 023°38'0 0.0
2015-Aug-28 22:33N 37°57' E 023°38'0 0.0
2015-Aug-28 21:33N 37°57' E 023°38'0 0.0
2015-Aug-28 20:33N 37°57' E 023°38'0 0.0
2015-Aug-28 19:33N 37°57' E 023°38'0 0.0
2015-Aug-28 18:33N 37°57' E 023°38'0 0.0
2015-Aug-28 17:33N 37°57' E 023°38'1010.4
2015-Aug-28 16:33N 37°47' E 023°42'2721.9
2015-Aug-28 15:19N 37°33' E 024°11'2622.5
2015-Aug-28 14:10N 37°31' E 024°44'1219.0
2015-Aug-28 13:33N 37°27' E 024°57'2 1.6
2015-Aug-28 12:34N 37°27' E 024°59'1111.4
2015-Aug-28 11:34N 37°30' E 025°13'5 5.0
2015-Aug-28 10:33N 37°28' E 025°19'9 9.1
2015-Aug-28 09:33N 37°32' E 025°09'1211.8
2015-Aug-28 08:33N 37°26' E 024°57'5819.3
2015-Aug-28 05:33N 37°39' E 023°45'1818.4
2015-Aug-28 04:33N 37°57' E 023°38'0 0.0
2015-Aug-28 03:33N 37°57' E 023°38'0 0.0
2015-Aug-28 02:33N 37°57' E 023°38'2 1.9
2015-Aug-28 01:34N 37°55' E 023°37'1918.7
2015-Aug-28 00:33N 37°40' E 023°50'5718.9
2015-Aug-27 21:33N 37°14' E 024°54'1515.1
2015-Aug-27 20:33N 37°05' E 025°09'1010.3
2015-Aug-27 19:33N 37°07' E 025°22'8 7.7
2015-Aug-27 18:33N 36°59' E 025°20'1110.6
2015-Aug-27 17:32N 36°52' E 025°31'10 9.2
2015-Aug-27 16:30N 36°54' E 025°42'4 1.1
2015-Aug-27 12:33N 36°52' E 025°47'1212.0
2015-Aug-27 11:33N 36°54' E 025°32'11 9.2
2015-Aug-27 10:22N 36°59' E 025°20'7 9.1
2015-Aug-27 09:33N 37°06' E 025°22'1110.7
2015-Aug-27 08:33N 37°05' E 025°09'1817.9
2015-Aug-27 07:33N 37°16' E 024°51'5322.1
2015-Aug-27 05:08N 37°38' E 023°50'1221.2
2015-Aug-27 04:34N 37°47' E 023°39'10 9.8
2015-Aug-27 03:33N 37°57' E 023°38'0 0.0
2015-Aug-27 02:33N 37°57' E 023°38'0 0.0
2015-Aug-27 01:33N 37°57' E 023°38'0 0.0
2015-Aug-27 00:33N 37°57' E 023°38'0 0.0
2015-Aug-26 23:33N 37°57' E 023°38'0 0.0
2015-Aug-26 22:33N 37°57' E 023°38'0 0.0
2015-Aug-26 21:33N 37°57' E 023°38'0 0.0
2015-Aug-26 20:33N 37°57' E 023°38'0 0.0
2015-Aug-26 19:33N 37°57' E 023°38'0 0.0
2015-Aug-26 18:33N 37°57' E 023°38'0 0.0
2015-Aug-26 17:33N 37°57' E 023°38'8 7.8
2015-Aug-26 16:33N 37°49' E 023°41'6421.2
2015-Aug-26 13:33N 37°29' E 024°57'3 3.2
2015-Aug-26 12:34N 37°26' E 024°57'1313.3
2015-Aug-26 11:33N 37°30' E 025°13'5 5.4
2015-Aug-26 10:33N 37°28' E 025°19'9 9.1
2015-Aug-26 09:34N 37°32' E 025°09'1211.7
2015-Aug-26 08:33N 37°26' E 024°57'5618.8
2015-Aug-26 05:34N 37°39' E 023°47'1919.0
2015-Aug-26 04:33N 37°57' E 023°38'0 0.4
2015-Aug-26 03:33N 37°57' E 023°38'0 0.0
2015-Aug-26 02:33N 37°57' E 023°38'3 3.0
2015-Aug-26 01:33N 37°54' E 023°38'1918.6
2015-Aug-26 00:33N 37°39' E 023°52'5718.8
2015-Aug-25 21:34N 37°13' E 024°55'1413.3
2015-Aug-25 20:32N 37°05' E 025°09'1010.5
2015-Aug-25 19:34N 37°07' E 025°22'6 6.2
2015-Aug-25 18:33N 37°01' E 025°19'1311.5
2015-Aug-25 17:28N 36°52' E 025°31'8 9.2
2015-Aug-25 16:33N 36°55' E 025°41'8 1.8
2015-Aug-25 12:18N 36°51' E 025°49'1114.2
2015-Aug-25 11:31N 36°56' E 025°36'17 8.5
2015-Aug-25 09:34N 37°07' E 025°20'9 9.3
2015-Aug-25 08:33N 37°07' E 025°09'1111.0
2015-Aug-25 07:33N 37°12' E 024°56'6722.1
2015-Aug-25 04:33N 37°42' E 023°41'1515.3
2015-Aug-25 03:33N 37°57' E 023°38'0 0.0
2015-Aug-25 02:33N 37°57' E 023°38'0 0.0
2015-Aug-25 01:33N 37°57' E 023°38'0 0.0
2015-Aug-25 00:33N 37°57' E 023°38'0 0.0
2015-Aug-24 23:33N 37°57' E 023°38'0 0.0
2015-Aug-24 22:33N 37°57' E 023°38'0 0.0
2015-Aug-24 21:33N 37°57' E 023°38'0 0.0
2015-Aug-24 20:33N 37°57' E 023°38'0 0.0
2015-Aug-24 19:33N 37°57' E 023°38'0 0.0
2015-Aug-24 18:33N 37°57' E 023°38'0 0.0
2015-Aug-24 17:33N 37°57' E 023°38'7 6.6
2015-Aug-24 16:34N 37°50' E 023°40'2221.5
2015-Aug-24 15:33N 37°36' E 024°00'4522.4
2015-Aug-24 13:33N 37°31' E 024°56'4 4.5
2015-Aug-24 12:34N 37°26' E 024°58'1313.2
2015-Aug-24 11:33N 37°29' E 025°14'4 4.4
2015-Aug-24 10:34N 37°28' E 025°19'9 8.9
2015-Aug-24 09:33N 37°32' E 025°09'1111.4
2015-Aug-24 08:33N 37°26' E 024°57'5618.7
2015-Aug-24 05:33N 37°39' E 023°48'1919.2
2015-Aug-24 04:33N 37°57' E 023°38'0 0.4
2015-Aug-24 03:33N 37°57' E 023°38'0 0.0
2015-Aug-24 02:33N 37°57' E 023°38'2 1.6
2015-Aug-24 01:34N 37°56' E 023°37'1918.6
2015-Aug-24 00:33N 37°40' E 023°48'2119.3
2015-Aug-23 23:28N 37°31' E 024°13'3719.2
2015-Aug-23 21:34N 37°14' E 024°53'1514.7
2015-Aug-23 20:32N 37°05' E 025°09'1111.0
2015-Aug-23 19:34N 37°06' E 025°22'10 9.9
2015-Aug-23 18:33N 36°56' E 025°22'8 7.9
2015-Aug-23 17:31N 36°52' E 025°31'8 8.3
2015-Aug-23 16:33N 36°55' E 025°40'10 2.2
2015-Aug-23 12:15N 36°50' E 025°50'1318.2
2015-Aug-23 11:33N 36°56' E 025°36'17 8.3
2015-Aug-23 09:33N 37°06' E 025°20'9 9.1
2015-Aug-23 08:33N 37°07' E 025°09'1212.5
2015-Aug-23 07:34N 37°13' E 024°55'6622.1
2015-Aug-23 04:33N 37°44' E 023°41'1313.4
2015-Aug-23 03:34N 37°57' E 023°38'0 0.0
2015-Aug-23 02:34N 37°57' E 023°38'0 0.0
2015-Aug-23 01:33N 37°57' E 023°38'0 0.0
2015-Aug-23 00:34N 37°57' E 023°38'0 0.0
2015-Aug-22 23:34N 37°57' E 023°38'0 0.0
2015-Aug-22 22:34N 37°57' E 023°38'0 0.0
2015-Aug-22 21:33N 37°57' E 023°38'0 0.0
2015-Aug-22 20:34N 37°57' E 023°38'0 0.0
2015-Aug-22 19:34N 37°57' E 023°38'0 0.0
2015-Aug-22 18:34N 37°57' E 023°38'0 0.0
2015-Aug-22 17:33N 37°57' E 023°38'6 6.0
2015-Aug-22 16:34N 37°51' E 023°39'6421.3
2015-Aug-22 13:33N 37°30' E 024°56'4 4.0
2015-Aug-22 12:33N 37°28' E 024°60'1111.3
2015-Aug-22 11:33N 37°29' E 025°13'5 5.0
2015-Aug-22 10:33N 37°28' E 025°19'9 9.1
2015-Aug-22 09:34N 37°32' E 025°09'1111.3
2015-Aug-22 08:33N 37°26' E 024°57'5618.8
2015-Aug-22 05:33N 37°39' E 023°47'1919.1
2015-Aug-22 04:33N 37°57' E 023°38'0 0.3
2015-Aug-22 03:33N 37°57' E 023°38'0 0.0
2015-Aug-22 02:33N 37°57' E 023°38'0 0.0
2015-Aug-22 01:33N 37°57' E 023°38'0 0.0
2015-Aug-22 00:33N 37°57' E 023°38'0 0.0
2015-Aug-21 23:33N 37°57' E 023°38'0 0.0
2015-Aug-21 22:33N 37°57' E 023°38'0 0.0
2015-Aug-21 21:33N 37°57' E 023°38'0 0.0
2015-Aug-21 20:33N 37°57' E 023°38'0 0.0
2015-Aug-21 19:33N 37°57' E 023°38'0 0.0
2015-Aug-21 18:33N 37°57' E 023°38'0 0.0
2015-Aug-21 17:33N 37°57' E 023°38'6 5.7
2015-Aug-21 16:33N 37°51' E 023°39'2521.2
2015-Aug-21 15:23N 37°35' E 024°03'4322.6
2015-Aug-21 13:29N 37°30' E 024°57'3 3.3
2015-Aug-21 12:34N 37°27' E 024°59'1211.9
2015-Aug-21 11:33N 37°30' E 025°13'5 5.1
2015-Aug-21 10:33N 37°28' E 025°19'9 9.2
2015-Aug-21 09:34N 37°32' E 025°09'1211.5
2015-Aug-21 08:32N 37°26' E 024°57'5618.9
2015-Aug-21 05:33N 37°39' E 023°47'1919.3
2015-Aug-21 04:34N 37°56' E 023°38'0 0.5
2015-Aug-21 03:33N 37°57' E 023°38'0 0.0
2015-Aug-21 02:33N 37°57' E 023°38'2 1.9
2015-Aug-21 01:33N 37°55' E 023°37'1818.5
2015-Aug-21 00:33N 37°39' E 023°49'2019.1
2015-Aug-20 23:32N 37°32' E 024°12'2519.4
2015-Aug-20 22:15N 37°22' E 024°41'1420.3
2015-Aug-20 21:33N 37°14' E 024°55'1413.9
2015-Aug-20 20:33N 37°05' E 025°09'1010.5
2015-Aug-20 19:34N 37°07' E 025°22'7 6.7
2015-Aug-20 18:33N 37°00' E 025°20'1211.3
2015-Aug-20 17:31N 36°52' E 025°31'8 7.9
2015-Aug-20 16:32N 36°55' E 025°40'9 2.3
2015-Aug-20 12:28N 36°50' E 025°50'1312.5
2015-Aug-20 11:26N 36°53' E 025°34'6 6.2
2015-Aug-20 10:33N 36°53' E 025°27'1413.7
2015-Aug-20 09:33N 37°06' E 025°22'1110.6
2015-Aug-20 08:32N 37°05' E 025°09'1515.6
2015-Aug-20 07:33N 37°14' E 024°53'5322.7
2015-Aug-20 05:14N 37°37' E 023°54'1521.7
2015-Aug-20 04:33N 37°46' E 023°39'1010.4
2015-Aug-20 03:33N 37°57' E 023°38'0 0.0
2015-Aug-20 02:33N 37°57' E 023°38'0 0.0
2015-Aug-20 01:33N 37°57' E 023°38'0 0.0
2015-Aug-20 00:33N 37°57' E 023°38'0 0.0
2015-Aug-19 23:33N 37°57' E 023°38'0 0.0
2015-Aug-19 22:33N 37°57' E 023°38'0 0.0
2015-Aug-19 21:33N 37°57' E 023°38'0 0.0
2015-Aug-19 20:33N 37°57' E 023°38'  

Dump ship's entire track history